createdAt,value
2022-10-07T00:01:10.366Z,7.90
2022-10-07T00:03:37.600Z,8.45
2022-10-07T00:06:13.235Z,8.32
2022-10-07T00:08:43.472Z,8.32
2022-10-07T00:11:13.171Z,7.38
2022-10-07T00:13:42.134Z,7.50
2022-10-07T00:16:15.653Z,7.00
2022-10-07T00:18:46.605Z,7.70
2022-10-07T00:21:16.368Z,8.63
2022-10-07T00:23:44.596Z,7.72
2022-10-07T00:26:14.648Z,8.35
2022-10-07T00:28:43.023Z,8.25
2022-10-07T00:31:15.306Z,8.00
2022-10-07T00:33:43.275Z,7.95
2022-10-07T00:36:16.129Z,8.70
2022-10-07T00:38:50.550Z,8.38
2022-10-07T00:41:25.991Z,8.07
2022-10-07T00:43:56.170Z,7.65
2022-10-07T00:46:35.916Z,7.95
2022-10-07T00:49:11.048Z,8.18
2022-10-07T00:51:39.086Z,7.50
2022-10-07T00:54:11.174Z,7.63
2022-10-07T00:56:41.270Z,7.53
2022-10-07T00:59:09.193Z,8.13
2022-10-07T01:01:36.371Z,8.10
2022-10-07T01:04:04.189Z,8.93
2022-10-07T01:06:33.845Z,8.23
2022-10-07T01:09:00.871Z,8.65
2022-10-07T01:11:55.856Z,9.10
2022-10-07T01:15:03.249Z,8.27
2022-10-07T01:17:53.289Z,8.77
2022-10-07T01:20:48.314Z,10.52
2022-10-07T01:23:15.270Z,10.88
2022-10-07T01:26:20.573Z,10.02
2022-10-07T01:29:05.019Z,9.90
2022-10-07T01:31:41.045Z,9.02
2022-10-07T01:34:10.591Z,9.43
2022-10-07T01:36:41.819Z,9.70
2022-10-07T01:39:13.851Z,9.77
2022-10-07T01:41:41.549Z,9.23
2022-10-07T01:44:12.015Z,8.57
2022-10-07T01:46:43.026Z,8.38
2022-10-07T01:49:10.375Z,9.65
2022-10-07T01:51:51.938Z,10.23
2022-10-07T01:54:25.336Z,10.27
2022-10-07T01:57:05.727Z,9.90
2022-10-07T02:00:00.762Z,8.55
2022-10-07T02:03:06.790Z,9.80
2022-10-07T02:05:44.315Z,9.70
2022-10-07T02:08:23.283Z,10.95
2022-10-07T02:11:04.623Z,9.63
2022-10-07T02:14:03.711Z,10.68
2022-10-07T02:16:44.188Z,10.77
2022-10-07T02:19:17.791Z,10.30
2022-10-07T02:21:49.323Z,9.93
2022-10-07T02:24:20.500Z,10.98
2022-10-07T02:26:50.120Z,9.15
2022-10-07T02:29:24.052Z,9.95
2022-10-07T02:31:59.304Z,9.40
2022-10-07T02:34:28.652Z,10.50
2022-10-07T02:37:11.598Z,9.48
2022-10-07T02:39:38.591Z,9.63
2022-10-07T02:42:19.579Z,10.75
2022-10-07T02:44:54.052Z,9.18
2022-10-07T02:47:24.574Z,9.10
2022-10-07T02:49:54.068Z,9.38
2022-10-07T02:52:23.283Z,9.55
2022-10-07T02:55:00.415Z,8.85
2022-10-07T02:57:33.524Z,9.23
2022-10-07T03:00:01.882Z,8.75
2022-10-07T03:02:46.981Z,9.57
2022-10-07T03:05:19.305Z,9.75
2022-10-07T03:07:55.744Z,9.32
2022-10-07T03:10:23.330Z,9.65
2022-10-07T03:12:53.040Z,10.35
2022-10-07T03:15:20.232Z,9.77
2022-10-07T03:17:50.311Z,10.75
2022-10-07T03:20:17.898Z,9.73
2022-10-07T03:22:49.552Z,9.82
2022-10-07T03:25:18.442Z,10.38
2022-10-07T03:27:46.574Z,10.82
2022-10-07T03:30:20.171Z,10.00
2022-10-07T03:32:53.428Z,9.02
2022-10-07T03:35:21.371Z,8.35
2022-10-07T03:37:48.642Z,8.82
2022-10-07T03:40:18.959Z,8.43
2022-10-07T03:42:45.855Z,9.38
2022-10-07T03:45:13.376Z,9.25
2022-10-07T03:47:40.239Z,9.20
2022-10-07T03:50:08.867Z,9.40
2022-10-07T03:52:36.961Z,8.73
2022-10-07T03:55:04.139Z,9.07
2022-10-07T03:57:51.821Z,9.27
2022-10-07T04:00:23.843Z,8.90
2022-10-07T04:02:54.491Z,8.52
2022-10-07T04:05:22.908Z,9.20
2022-10-07T04:07:54.523Z,9.25
2022-10-07T04:10:21.638Z,9.23
2022-10-07T04:12:54.383Z,9.90
2022-10-07T04:15:21.818Z,9.25
2022-10-07T04:17:56.389Z,9.60
2022-10-07T04:20:24.190Z,10.65
2022-10-07T04:22:51.273Z,10.52
2022-10-07T04:25:35.878Z,10.75
2022-10-07T04:28:16.203Z,10.13
2022-10-07T04:30:51.342Z,9.20
2022-10-07T04:33:24.231Z,9.38
2022-10-07T04:35:53.927Z,10.13
2022-10-07T04:38:24.290Z,10.00
2022-10-07T04:40:54.845Z,10.55
2022-10-07T04:43:24.363Z,11.35
2022-10-07T04:46:07.606Z,14.75
2022-10-07T04:48:38.046Z,16.88
2022-10-07T04:51:08.860Z,14.88
2022-10-07T04:53:38.733Z,21.52
2022-10-07T04:56:08.273Z,24.10
2022-10-07T04:58:36.361Z,28.55
2022-10-07T05:01:09.443Z,31.75
2022-10-07T05:03:40.397Z,34.80
2022-10-07T05:06:10.003Z,33.08
2022-10-07T05:08:42.643Z,34.95
2022-10-07T05:11:11.615Z,33.72
2022-10-07T05:13:47.175Z,33.10
2022-10-07T05:16:15.400Z,35.65
2022-10-07T05:18:46.589Z,35.15
2022-10-07T05:21:17.340Z,33.58
2022-10-07T05:23:46.841Z,34.90
2022-10-07T05:26:18.457Z,34.22
2022-10-07T05:28:50.657Z,33.42
2022-10-07T05:31:25.965Z,31.52
2022-10-07T05:33:56.540Z,31.67
2022-10-07T05:36:25.650Z,31.33
2022-10-07T05:38:58.145Z,31.40
2022-10-07T05:41:30.057Z,31.08
2022-10-07T05:44:00.210Z,31.92
2022-10-07T05:46:27.693Z,30.40
2022-10-07T05:48:58.146Z,28.13
2022-10-07T05:51:30.389Z,27.98
2022-10-07T05:53:59.127Z,28.48
2022-10-07T05:56:32.915Z,25.42
2022-10-07T05:59:00.360Z,26.30
2022-10-07T06:01:30.276Z,24.48
2022-10-07T06:04:01.854Z,26.10
2022-10-07T06:06:34.116Z,26.73
2022-10-07T06:09:23.234Z,25.35
2022-10-07T06:12:08.895Z,26.98
2022-10-07T06:14:38.267Z,25.05
2022-10-07T06:17:07.364Z,27.25
2022-10-07T06:19:37.189Z,26.52
2022-10-07T06:22:05.158Z,24.70
2022-10-07T06:24:35.254Z,25.50
2022-10-07T06:27:02.967Z,24.23
2022-10-07T06:29:30.952Z,24.63
2022-10-07T06:31:58.612Z,24.20
2022-10-07T06:34:26.216Z,26.67
2022-10-07T06:36:54.734Z,24.17
2022-10-07T06:39:22.124Z,23.15
2022-10-07T06:41:52.971Z,22.63
2022-10-07T06:44:32.840Z,21.85
2022-10-07T06:47:01.301Z,22.48
2022-10-07T06:49:33.404Z,23.48
2022-10-07T06:52:00.743Z,21.77
2022-10-07T06:54:28.428Z,21.58
2022-10-07T06:56:58.673Z,22.77
2022-10-07T06:59:25.793Z,21.13
2022-10-07T07:02:01.809Z,20.90
2022-10-07T07:04:29.751Z,18.58
2022-10-07T07:06:57.621Z,17.90
2022-10-07T07:09:24.875Z,15.75
2022-10-07T07:11:56.385Z,14.85
2022-10-07T07:14:29.850Z,14.02
2022-10-07T07:17:02.602Z,12.68
2022-10-07T07:19:30.466Z,11.93
2022-10-07T07:21:58.439Z,12.30
2022-10-07T07:24:27.312Z,13.30
2022-10-07T07:26:54.678Z,12.88
2022-10-07T07:29:24.350Z,12.05
2022-10-07T07:32:00.048Z,11.02
2022-10-07T07:34:30.358Z,11.27
2022-10-07T07:37:00.179Z,10.25
2022-10-07T07:39:34.217Z,10.13
2022-10-07T07:42:09.784Z,10.60
2022-10-07T07:44:38.862Z,9.50
2022-10-07T07:47:09.361Z,10.13
2022-10-07T07:49:37.218Z,10.05
2022-10-07T07:52:05.552Z,10.35
2022-10-07T07:54:42.205Z,10.57
2022-10-07T07:57:10.522Z,10.98
2022-10-07T07:59:38.316Z,11.00
2022-10-07T08:02:10.295Z,10.43
2022-10-07T08:04:38.859Z,10.57
2022-10-07T08:07:07.681Z,10.73
2022-10-07T08:09:35.018Z,11.68
2022-10-07T08:12:02.462Z,10.65
2022-10-07T08:14:29.639Z,11.20
2022-10-07T08:16:59.187Z,10.68
2022-10-07T08:19:29.542Z,11.02
2022-10-07T08:22:00.103Z,11.05
2022-10-07T08:24:31.828Z,11.02
2022-10-07T08:26:58.995Z,11.65
2022-10-07T08:29:26.477Z,12.27
2022-10-07T08:31:53.611Z,11.77
2022-10-07T08:34:20.730Z,11.55
2022-10-07T08:36:49.254Z,11.05
2022-10-07T08:39:18.435Z,11.80
2022-10-07T08:42:01.314Z,12.13
2022-10-07T08:44:49.734Z,11.75
2022-10-07T08:47:25.094Z,12.68
2022-10-07T08:50:16.667Z,11.77
2022-10-07T08:52:53.854Z,10.35
2022-10-07T08:55:28.420Z,11.30
2022-10-07T08:58:04.266Z,12.07
2022-10-07T09:00:46.408Z,12.02
2022-10-07T09:03:41.294Z,12.20
2022-10-07T09:06:14.032Z,13.55
2022-10-07T09:08:47.520Z,13.43
2022-10-07T09:11:25.613Z,13.57
2022-10-07T09:14:23.906Z,13.38
2022-10-07T09:16:59.466Z,13.95
2022-10-07T09:19:30.339Z,13.85
2022-10-07T09:22:05.369Z,14.50
2022-10-07T09:24:34.491Z,13.82
2022-10-07T09:27:07.536Z,13.45
2022-10-07T09:29:36.615Z,12.43
2022-10-07T09:32:06.523Z,13.32
2022-10-07T09:34:34.336Z,13.50
2022-10-07T09:37:27.780Z,12.73
2022-10-07T09:40:15.853Z,13.68
2022-10-07T09:42:44.171Z,12.68
2022-10-07T09:45:35.091Z,12.75
2022-10-07T09:48:07.607Z,12.65
2022-10-07T09:50:41.189Z,12.02
2022-10-07T09:53:25.143Z,12.77
2022-10-07T09:55:55.217Z,13.20
2022-10-07T09:58:28.500Z,13.55
2022-10-07T10:00:58.225Z,11.75
2022-10-07T10:03:33.717Z,12.07
2022-10-07T10:06:06.960Z,11.82
2022-10-07T10:08:42.051Z,11.90
2022-10-07T10:11:18.189Z,13.35
2022-10-07T10:13:48.323Z,10.75
2022-10-07T10:16:24.479Z,11.57
2022-10-07T10:19:04.021Z,11.35
2022-10-07T10:21:39.427Z,12.35
2022-10-07T10:24:11.939Z,11.70
2022-10-07T10:26:56.151Z,12.07
2022-10-07T10:29:38.144Z,12.02
2022-10-07T10:32:21.634Z,12.27
2022-10-07T10:35:19.426Z,13.50
2022-10-07T10:37:46.376Z,14.48
2022-10-07T10:40:40.446Z,13.30
2022-10-07T10:43:13.798Z,14.18
2022-10-07T10:45:59.664Z,12.05
2022-10-07T10:48:29.524Z,11.55
2022-10-07T10:51:10.407Z,10.95
2022-10-07T10:54:20.919Z,10.70
2022-10-07T10:57:09.663Z,8.85
2022-10-07T11:00:02.091Z,8.52
2022-10-07T11:02:39.165Z,7.95
2022-10-07T11:05:21.396Z,7.43
2022-10-07T11:08:00.556Z,7.55
2022-10-07T11:10:35.486Z,7.05
2022-10-07T11:13:32.882Z,7.90
2022-10-07T11:16:20.635Z,7.65
2022-10-07T11:19:09.204Z,7.43
2022-10-07T11:21:43.310Z,8.52
2022-10-07T11:24:27.664Z,6.78
2022-10-07T11:26:58.821Z,6.80
2022-10-07T11:29:51.956Z,7.63
2022-10-07T11:32:35.930Z,8.15
2022-10-07T11:35:22.375Z,7.10
2022-10-07T11:38:10.609Z,6.30
2022-10-07T11:40:53.884Z,6.28
2022-10-07T11:43:38.335Z,8.48
2022-10-07T11:46:16.544Z,6.25
2022-10-07T11:48:49.348Z,7.20
2022-10-07T11:51:29.101Z,4.93
2022-10-07T11:54:06.833Z,5.43
2022-10-07T11:56:50.767Z,5.18
2022-10-07T11:59:44.339Z,5.72
2022-10-07T12:02:30.098Z,5.65
2022-10-07T12:05:01.982Z,4.65
2022-10-07T12:07:32.614Z,6.78
2022-10-07T12:09:59.561Z,4.72
2022-10-07T12:12:47.462Z,5.63
2022-10-07T12:15:33.895Z,6.43
2022-10-07T12:18:06.140Z,6.40
2022-10-07T12:20:58.869Z,5.65
2022-10-07T12:23:26.571Z,5.18
2022-10-07T12:26:03.710Z,5.47
2022-10-07T12:28:48.836Z,5.93
2022-10-07T12:31:18.750Z,5.00
2022-10-07T12:33:45.901Z,5.60
2022-10-07T12:36:18.898Z,6.93
2022-10-07T12:39:08.049Z,5.82
2022-10-07T12:41:39.675Z,6.10
2022-10-07T12:44:36.282Z,5.95
2022-10-07T12:47:16.385Z,5.40
2022-10-07T12:50:00.755Z,5.00
2022-10-07T12:52:55.746Z,5.38
2022-10-07T12:55:31.430Z,4.53
2022-10-07T12:58:25.282Z,4.35
2022-10-07T13:01:11.939Z,4.07
2022-10-07T13:04:11.321Z,4.97
2022-10-07T13:07:12.209Z,3.97
2022-10-07T13:10:07.198Z,4.78
2022-10-07T13:12:51.990Z,4.03
2022-10-07T13:15:35.375Z,4.05
2022-10-07T13:18:10.827Z,4.32
2022-10-07T13:21:02.790Z,5.78
2022-10-07T13:23:34.197Z,4.50
2022-10-07T13:26:05.404Z,4.15
2022-10-07T13:28:53.016Z,4.30
2022-10-07T13:31:23.292Z,4.47
2022-10-07T13:33:51.993Z,4.20
2022-10-07T13:36:35.160Z,3.75
2022-10-07T13:39:24.393Z,4.30
2022-10-07T13:41:57.923Z,4.22
2022-10-07T13:44:33.165Z,4.40
2022-10-07T13:47:06.093Z,3.53
2022-10-07T13:49:43.702Z,4.18
2022-10-07T13:52:23.426Z,4.28
2022-10-07T13:54:52.172Z,3.85
2022-10-07T13:57:21.525Z,3.88
2022-10-07T13:59:51.732Z,4.05
2022-10-07T14:02:20.789Z,3.60
2022-10-07T14:04:53.441Z,4.22
2022-10-07T14:07:22.186Z,4.60
2022-10-07T14:10:12.934Z,4.82
2022-10-07T14:12:47.630Z,3.85
2022-10-07T14:15:19.814Z,4.57
2022-10-07T14:17:54.812Z,4.43
2022-10-07T14:20:28.554Z,4.38
2022-10-07T14:23:01.856Z,4.20
2022-10-07T14:25:31.727Z,4.35
2022-10-07T14:27:59.552Z,4.90
2022-10-07T14:30:57.519Z,4.18
2022-10-07T14:34:05.352Z,4.75
2022-10-07T14:36:33.718Z,4.30
2022-10-07T14:39:04.012Z,4.97
2022-10-07T14:41:31.974Z,4.35
2022-10-07T14:44:02.466Z,4.30
2022-10-07T14:46:29.756Z,4.35
2022-10-07T14:49:02.234Z,3.97
2022-10-07T14:51:29.570Z,4.35
2022-10-07T14:54:02.043Z,4.78
2022-10-07T14:56:33.842Z,4.15
2022-10-07T14:59:02.530Z,3.78
2022-10-07T15:01:30.027Z,4.40
2022-10-07T15:03:57.760Z,3.85
2022-10-07T15:06:25.116Z,3.70
2022-10-07T15:08:52.684Z,4.10
2022-10-07T15:11:22.194Z,4.30
2022-10-07T15:13:50.126Z,3.92
2022-10-07T15:16:21.169Z,4.93
2022-10-07T15:18:52.382Z,4.40
2022-10-07T15:21:22.146Z,4.20
2022-10-07T15:23:53.120Z,4.20
2022-10-07T15:26:23.630Z,4.03
2022-10-07T15:28:56.437Z,4.28
2022-10-07T15:31:29.168Z,4.30
2022-10-07T15:33:57.931Z,4.65
2022-10-07T15:36:27.693Z,4.10
2022-10-07T15:38:55.886Z,8.00
2022-10-07T15:41:35.598Z,5.45
2022-10-07T15:44:06.290Z,5.22
2022-10-07T15:46:33.958Z,4.65
2022-10-07T15:49:01.002Z,5.10
2022-10-07T15:51:29.466Z,4.43
2022-10-07T15:53:59.773Z,4.70
2022-10-07T15:56:26.818Z,4.78
2022-10-07T15:58:54.182Z,4.50
2022-10-07T16:01:21.494Z,5.15
2022-10-07T16:03:49.466Z,4.95
2022-10-07T16:06:18.497Z,5.32
2022-10-07T16:08:45.452Z,4.60
2022-10-07T16:11:12.667Z,4.78
2022-10-07T16:13:42.003Z,5.03
2022-10-07T16:16:12.322Z,4.82
2022-10-07T16:18:41.408Z,5.40
2022-10-07T16:21:15.942Z,5.38
2022-10-07T16:23:47.831Z,5.75
2022-10-07T16:26:16.333Z,5.18
2022-10-07T16:29:06.883Z,5.15
2022-10-07T16:31:40.368Z,5.40
2022-10-07T16:34:08.651Z,5.07
2022-10-07T16:36:36.415Z,5.60
2022-10-07T16:39:05.543Z,6.07
2022-10-07T16:41:36.487Z,5.93
2022-10-07T16:44:05.120Z,5.78
2022-10-07T16:46:32.601Z,6.13
2022-10-07T16:49:00.455Z,6.38
2022-10-07T16:51:30.779Z,5.88
2022-10-07T16:54:01.822Z,6.53
2022-10-07T16:56:36.104Z,7.22
2022-10-07T16:59:05.385Z,6.35
2022-10-07T17:01:33.274Z,6.25
2022-10-07T17:04:01.216Z,6.13
2022-10-07T17:06:30.355Z,6.60
2022-10-07T17:09:04.397Z,6.25
2022-10-07T17:11:39.883Z,6.15
2022-10-07T17:16:42.360Z,6.32
2022-10-07T17:19:13.347Z,6.28
2022-10-07T17:21:45.498Z,5.97
2022-10-07T17:24:13.377Z,6.68
2022-10-07T17:26:40.590Z,6.70
2022-10-07T17:29:12.494Z,8.48
2022-10-07T17:31:42.699Z,8.68
2022-10-07T17:34:11.776Z,8.98
2022-10-07T17:36:39.700Z,9.85
2022-10-07T17:39:07.731Z,8.38
2022-10-07T17:41:37.194Z,7.65
2022-10-07T17:44:09.422Z,6.55
2022-10-07T17:46:38.133Z,7.00
2022-10-07T17:49:09.650Z,7.10
2022-10-07T17:51:37.632Z,6.97
2022-10-07T17:54:06.141Z,6.90
2022-10-07T17:56:36.137Z,6.93
2022-10-07T17:59:03.960Z,6.78
2022-10-07T18:01:35.752Z,7.05
2022-10-07T18:04:06.213Z,7.18
2022-10-07T18:06:35.766Z,7.80
2022-10-07T18:09:05.427Z,7.60
2022-10-07T18:11:52.648Z,7.80
2022-10-07T18:14:38.680Z,7.72
2022-10-07T18:17:08.073Z,7.72
2022-10-07T18:19:35.761Z,8.00
2022-10-07T18:22:03.314Z,7.90
2022-10-07T18:24:30.413Z,7.78
2022-10-07T18:26:59.942Z,7.38
2022-10-07T18:29:33.161Z,8.02
2022-10-07T18:32:01.167Z,8.18
2022-10-07T18:34:29.176Z,8.20
2022-10-07T18:36:57.212Z,8.10
2022-10-07T18:39:27.806Z,7.75
2022-10-07T18:41:58.776Z,7.80
2022-10-07T18:44:26.796Z,8.45
2022-10-07T18:46:55.713Z,8.50
2022-10-07T18:49:28.146Z,8.98
2022-10-07T18:51:58.017Z,9.32
2022-10-07T18:54:27.010Z,9.48
2022-10-07T18:56:57.986Z,9.98
2022-10-07T18:59:27.996Z,9.63
2022-10-07T19:01:58.009Z,10.82
2022-10-07T19:04:26.278Z,9.95
2022-10-07T19:07:00.398Z,9.85
2022-10-07T19:09:29.924Z,9.40
2022-10-07T19:12:01.295Z,10.00
2022-10-07T19:14:32.523Z,9.73
2022-10-07T19:17:04.010Z,10.18
2022-10-07T19:19:33.592Z,9.73
2022-10-07T19:22:00.876Z,10.18
2022-10-07T19:24:46.161Z,10.73
2022-10-07T19:27:14.953Z,10.27
2022-10-07T19:29:48.542Z,10.30
2022-10-07T19:32:15.769Z,10.07
2022-10-07T19:34:44.441Z,10.57
2022-10-07T19:37:13.979Z,10.57
2022-10-07T19:39:41.761Z,10.93
2022-10-07T19:42:13.203Z,11.10
2022-10-07T19:44:48.601Z,11.13
2022-10-07T19:47:16.454Z,10.93
2022-10-07T19:49:54.162Z,10.68
2022-10-07T19:54:55.461Z,10.50
2022-10-07T19:57:24.764Z,10.43
2022-10-07T19:59:51.748Z,11.40
2022-10-07T20:02:19.471Z,10.82
2022-10-07T20:04:47.599Z,10.43
2022-10-07T20:07:18.186Z,10.55
2022-10-07T20:09:48.270Z,11.77
2022-10-07T20:12:19.492Z,11.18
2022-10-07T20:14:46.681Z,11.75
2022-10-07T20:17:13.856Z,11.57
2022-10-07T20:19:40.873Z,12.73
2022-10-07T20:22:08.389Z,11.00
2022-10-07T20:24:35.713Z,11.25
2022-10-07T20:27:04.144Z,12.85
2022-10-07T20:29:31.460Z,13.40
2022-10-07T20:31:58.641Z,12.77
2022-10-07T20:34:26.489Z,12.00
2022-10-07T20:36:54.974Z,12.57
2022-10-07T20:39:40.549Z,12.70
2022-10-07T20:42:22.265Z,12.55
2022-10-07T20:44:50.503Z,13.77
2022-10-07T20:47:19.417Z,12.10
2022-10-07T20:49:48.630Z,13.07
2022-10-07T20:52:21.320Z,13.63
2022-10-07T20:54:49.098Z,14.25
2022-10-07T20:57:21.957Z,13.55
2022-10-07T20:59:49.115Z,13.90
2022-10-07T21:02:18.435Z,13.75
2022-10-07T21:04:48.186Z,13.45
2022-10-07T21:07:19.801Z,14.32
2022-10-07T21:09:47.914Z,15.82
2022-10-07T21:12:18.407Z,15.25
2022-10-07T21:14:48.025Z,15.13
2022-10-07T21:17:16.084Z,15.57
2022-10-07T21:19:43.250Z,16.75
2022-10-07T21:22:10.742Z,15.85
2022-10-07T21:24:38.301Z,16.77
2022-10-07T21:27:07.068Z,16.83
2022-10-07T21:29:40.724Z,16.48
2022-10-07T21:32:10.418Z,17.58
2022-10-07T21:34:38.049Z,17.75
2022-10-07T21:37:04.970Z,17.35
2022-10-07T21:39:32.166Z,16.40
2022-10-07T21:41:59.354Z,16.73
2022-10-07T21:44:27.703Z,17.30
2022-10-07T21:47:00.031Z,17.80
2022-10-07T21:49:27.333Z,16.73
2022-10-07T21:51:54.388Z,17.42
2022-10-07T21:54:21.544Z,16.25
2022-10-07T21:56:50.200Z,16.27
2022-10-07T21:59:17.282Z,17.90
2022-10-07T22:01:44.695Z,17.33
2022-10-07T22:04:18.873Z,19.60
2022-10-07T22:07:07.543Z,18.40
2022-10-07T22:09:36.164Z,17.85
2022-10-07T22:12:06.357Z,18.70
2022-10-07T22:14:35.931Z,18.40
2022-10-07T22:17:03.912Z,18.88
2022-10-07T22:19:31.517Z,18.38
2022-10-07T22:21:58.552Z,17.75
2022-10-07T22:24:25.894Z,17.58
2022-10-07T22:26:55.867Z,18.05
2022-10-07T22:29:23.185Z,18.63
2022-10-07T22:31:50.226Z,17.80
2022-10-07T22:34:36.553Z,20.35
2022-10-07T22:39:31.859Z,19.55
2022-10-07T22:41:59.967Z,19.08
2022-10-07T22:44:30.189Z,21.05
2022-10-07T22:46:59.467Z,19.52
2022-10-07T22:49:29.787Z,20.55
2022-10-07T22:51:59.768Z,20.25
2022-10-07T22:54:30.137Z,21.73
2022-10-07T22:56:59.950Z,21.70
2022-10-07T22:59:27.516Z,20.25
2022-10-07T23:01:54.622Z,23.92
2022-10-07T23:04:24.040Z,22.23
2022-10-07T23:06:51.284Z,21.58
2022-10-07T23:09:18.302Z,22.27
2022-10-07T23:11:45.883Z,21.30
2022-10-07T23:14:13.144Z,23.98
2022-10-07T23:16:40.111Z,21.85
2022-10-07T23:19:07.019Z,21.65
2022-10-07T23:21:35.001Z,20.83
2022-10-07T23:24:07.191Z,22.13
2022-10-07T23:26:36.372Z,21.17
2022-10-07T23:29:03.940Z,19.95
2022-10-07T23:31:32.250Z,20.02
2022-10-07T23:34:01.109Z,23.00
2022-10-07T23:36:28.266Z,25.30
2022-10-07T23:38:55.655Z,23.13
2022-10-07T23:41:24.673Z,22.85
2022-10-07T23:43:53.356Z,21.48
2022-10-07T23:46:24.815Z,22.15
2022-10-07T23:48:52.986Z,23.65
2022-10-07T23:51:22.194Z,23.70
2022-10-07T23:53:49.328Z,23.23
2022-10-07T23:56:18.690Z,24.20
2022-10-07T23:58:45.864Z,22.85
